Time;durP1;ratioP1;P1;durP2;ratioP2;P2;SDS_P1;SDS_P2;PMS_P1;PMS_P2;Temp;Humidity;BMP_temperature;BMP_pressure;BME280_temperature;BME280_humidity;BME280_pressure;Samples;Min_cycle;Max_cycle;Signal;HPM_P1;HPM_P2
2022/08/22 00:00:33;;;;;;;14.98;4.13;;;18.40;99.90;;;;;;5032166;28;20046;-84
2022/08/22 00:03:20;;;;;;;11.35;3.58;;;18.40;99.90;;;;;;5030900;28;20049;-84
2022/08/22 00:06:10;;;;;;;13.63;3.70;;;18.40;99.90;;;;;;5016370;28;20405;-84
2022/08/22 00:09:04;;;;;;;9.38;3.38;;;18.40;99.90;;;;;;5031165;28;20045;-84
2022/08/22 00:11:35;;;;;;;11.82;3.55;;;18.40;99.90;;;;;;5030093;28;20057;-83
2022/08/22 00:14:34;;;;;;;11.20;3.55;;;18.40;99.90;;;;;;5032103;28;20042;-84
2022/08/22 00:17:26;;;;;;;12.70;3.90;;;18.40;99.90;;;;;;5032401;28;20049;-84
2022/08/22 00:20:08;;;;;;;10.32;3.75;;;18.40;99.90;;;;;;5013966;28;20085;-84
2022/08/22 00:22:52;;;;;;;10.32;3.53;;;18.40;99.90;;;;;;5031185;28;20042;-83
2022/08/22 00:25:39;;;;;;;11.02;3.80;;;18.40;99.90;;;;;;5032707;28;20080;-84
2022/08/22 00:28:33;;;;;;;11.32;3.38;;;18.40;99.90;;;;;;5032435;28;20049;-83
2022/08/22 00:31:28;;;;;;;11.90;3.90;;;18.40;99.90;;;;;;5029462;28;20132;-85
2022/08/22 00:34:08;;;;;;;8.50;3.53;;;18.30;99.90;;;;;;5008880;28;20064;-83
2022/08/22 00:36:46;;;;;;;12.23;3.83;;;18.30;99.90;;;;;;5029957;28;20466;-84
2022/08/22 00:39:18;;;;;;;10.85;4.00;;;18.30;99.90;;;;;;5033554;28;20477;-83
2022/08/22 00:41:58;;;;;;;10.95;4.20;;;18.40;99.90;;;;;;5040416;28;20048;-84
2022/08/22 00:45:01;;;;;;;8.15;3.75;;;18.30;99.90;;;;;;5041667;28;20041;-84
2022/08/22 00:47:55;;;;;;;10.60;3.95;;;18.30;99.90;;;;;;5034090;28;20053;-84
2022/08/22 00:50:36;;;;;;;11.38;3.72;;;18.30;99.90;;;;;;5035537;28;20037;-84
2022/08/22 00:53:20;;;;;;;11.35;4.28;;;18.30;99.90;;;;;;5034621;28;20107;-84
2022/08/22 00:55:56;;;;;;;12.00;4.10;;;18.30;99.90;;;;;;5020739;28;20504;-84
2022/08/22 00:59:02;;;;;;;12.00;4.10;;;18.30;99.90;;;;;;5022633;28;20052;-84
2022/08/22 01:01:35;;;;;;;12.00;3.90;;;18.30;99.90;;;;;;5030284;28;20049;-83
2022/08/22 01:04:44;;;;;;;14.13;4.20;;;18.30;99.90;;;;;;5035753;28;20049;-84
2022/08/22 01:07:10;;;;;;;10.95;4.13;;;18.30;99.90;;;;;;5035363;28;20049;-83
2022/08/22 01:09:40;;;;;;;10.20;3.60;;;18.30;99.90;;;;;;5034659;28;20556;-84
2022/08/22 01:12:44;;;;;;;12.27;4.07;;;18.30;99.90;;;;;;5017923;28;20410;-84
2022/08/22 01:15:15;;;;;;;11.55;4.38;;;18.30;99.90;;;;;;5015203;28;20049;-83
2022/08/22 01:18:10;;;;;;;11.18;4.07;;;18.30;99.90;;;;;;5034358;28;20085;-84
2022/08/22 01:20:49;;;;;;;11.32;3.95;;;18.30;99.90;;;;;;5033524;28;20056;-84
2022/08/22 01:23:40;;;;;;;14.23;4.32;;;18.30;99.90;;;;;;5032947;28;20061;-84
2022/08/22 01:26:21;;;;;;;9.00;3.92;;;18.30;99.90;;;;;;5024998;28;20398;-84
2022/08/22 01:29:24;;;;;;;10.35;4.05;;;18.30;99.90;;;;;;5031056;28;20128;-84
2022/08/22 01:32:23;;;;;;;8.18;3.65;;;18.30;99.90;;;;;;5003600;28;20056;-83
2022/08/22 01:35:16;;;;;;;10.85;3.88;;;18.30;99.90;;;;;;5035138;28;20057;-83
2022/08/22 01:37:52;;;;;;;9.32;3.67;;;18.20;99.90;;;;;;5033803;28;20050;-82
2022/08/22 01:40:34;;;;;;;13.07;3.97;;;18.20;99.90;;;;;;5032030;28;20083;-82
2022/08/22 01:43:35;;;;;;;10.57;3.97;;;18.20;99.90;;;;;;5034011;28;20057;-82
2022/08/22 01:46:03;;;;;;;11.52;4.28;;;18.20;99.90;;;;;;5020474;28;20141;-82
2022/08/22 01:48:57;;;;;;;8.98;3.85;;;18.20;99.90;;;;;;5033441;28;20059;-81
2022/08/22 01:51:41;;;;;;;12.95;4.10;;;18.20;99.90;;;;;;5034382;28;20473;-82
2022/08/22 01:54:22;;;;;;;12.80;3.83;;;18.20;99.90;;;;;;5034620;28;20041;-82
2022/08/22 01:56:48;;;;;;;9.45;3.50;;;18.10;99.90;;;;;;5033683;28;20065;-82
2022/08/22 01:59:33;;;;;;;10.90;3.78;;;18.10;99.90;;;;;;5032117;28;20394;-82
2022/08/22 02:02:08;;;;;;;11.32;4.35;;;18.10;99.90;;;;;;5033612;28;20045;-82
2022/08/22 02:04:52;;;;;;;10.13;3.65;;;18.00;99.90;;;;;;5032614;28;20049;-82
2022/08/22 02:07:37;;;;;;;11.10;3.75;;;18.00;99.90;;;;;;5016094;28;20048;-82
2022/08/22 02:10:27;;;;;;;12.65;3.53;;;18.00;99.90;;;;;;5033927;28;20033;-82
2022/08/22 02:13:06;;;;;;;12.27;3.83;;;17.90;99.90;;;;;;5022469;28;20046;-83
2022/08/22 02:15:42;;;;;;;12.27;3.50;;;17.90;99.90;;;;;;5032943;28;20045;-82
2022/08/22 02:18:07;;;;;;;15.15;3.67;;;17.90;99.90;;;;;;5032641;28;20045;-82
2022/08/22 02:20:39;;;;;;;11.52;3.42;;;17.90;99.90;;;;;;5015960;28;20473;-82
2022/08/22 02:23:28;;;;;;;10.32;3.65;;;18.00;99.90;;;;;;5031860;28;20186;-82
2022/08/22 02:25:59;;;;;;;13.57;3.70;;;17.90;99.90;;;;;;5032116;28;20052;-81
2022/08/22 02:28:39;;;;;;;9.38;3.38;;;17.90;99.90;;;;;;5026472;28;20069;-82
2022/08/22 02:31:12;;;;;;;10.68;3.42;;;17.90;99.90;;;;;;5032490;28;20379;-82
2022/08/22 02:33:46;;;;;;;8.50;3.28;;;17.80;99.90;;;;;;5031366;28;20042;-82
2022/08/22 02:36:42;;;;;;;9.02;3.28;;;17.90;99.90;;;;;;5015016;28;20049;-82
2022/08/22 02:39:35;;;;;;;9.95;3.22;;;17.80;99.90;;;;;;5031241;28;20060;-83
2022/08/22 02:42:20;;;;;;;11.05;3.40;;;17.80;99.90;;;;;;5032102;28;20037;-82
2022/08/22 02:45:21;;;;;;;9.45;3.08;;;17.80;99.90;;;;;;5005910;28;20037;-82
2022/08/22 02:48:25;;;;;;;11.15;3.47;;;17.70;99.90;;;;;;5028947;28;20053;-81
2022/08/22 02:51:04;;;;;;;9.05;3.33;;;17.70;99.90;;;;;;5031859;28;20453;-82
2022/08/22 02:53:37;;;;;;;13.35;3.50;;;17.70;99.90;;;;;;5031940;28;20060;-82
2022/08/22 02:56:11;;;;;;;12.25;3.50;;;17.70;99.90;;;;;;5032327;28;20049;-82
2022/08/22 02:59:11;;;;;;;9.90;3.50;;;17.70;99.90;;;;;;5032500;28;20474;-82
2022/08/22 03:01:42;;;;;;;10.25;3.40;;;17.60;99.90;;;;;;5032731;28;20394;-82
2022/08/22 03:04:25;;;;;;;11.30;3.95;;;17.60;99.90;;;;;;5033088;28;20119;-82
2022/08/22 03:07:02;;;;;;;15.25;4.00;;;17.60;99.90;;;;;;5032490;28;20077;-82
2022/08/22 03:09:44;;;;;;;14.02;3.90;;;17.90;99.90;;;;;;5031571;28;20154;-82
2022/08/22 03:12:32;;;;;;;11.27;3.65;;;17.70;99.90;;;;;;5027702;28;20057;-82
2022/08/22 03:15:17;;;;;;;11.25;3.35;;;17.50;99.90;;;;;;5028529;28;20447;-82
2022/08/22 03:18:07;;;;;;;12.82;3.58;;;17.50;99.90;;;;;;5032661;28;20037;-82
2022/08/22 03:21:14;;;;;;;8.43;3.35;;;17.40;99.90;;;;;;5032931;28;20103;-82
2022/08/22 03:24:00;;;;;;;;;;;17.40;99.90;;;;;;5026628;28;20049;-82
2022/08/22 03:26:32;;;;;;;15.93;3.90;;;17.40;99.90;;;;;;5031832;28;20014;-82
2022/08/22 03:29:18;;;;;;;13.25;3.60;;;17.40;99.90;;;;;;5032823;28;20033;-82
2022/08/22 03:32:15;;;;;;;11.23;3.95;;;17.40;99.90;;;;;;5028784;28;20242;-82
2022/08/22 03:34:53;;;;;;;8.75;3.60;;;17.30;99.90;;;;;;5020170;28;20485;-83
2022/08/22 03:37:34;;;;;;;11.38;3.53;;;17.30;99.90;;;;;;5031935;28;20605;-83
2022/08/22 03:40:23;;;;;;;10.25;3.15;;;17.30;99.90;;;;;;5031610;28;20176;-82
2022/08/22 03:43:16;;;;;;;9.27;2.92;;;17.30;99.90;;;;;;5031892;28;20099;-82
2022/08/22 03:46:06;;;;;;;11.88;3.53;;;17.20;99.90;;;;;;5032687;28;20056;-83
2022/08/22 03:48:34;;;;;;;9.65;3.70;;;17.20;99.90;;;;;;5031469;28;20072;-82
2022/08/22 03:51:03;;;;;;;12.20;3.70;;;17.60;99.90;;;;;;5031136;28;20111;-82
2022/08/22 03:53:28;;;;;;;16.42;3.65;;;17.30;99.90;;;;;;5031080;28;20077;-82
2022/08/22 03:56:28;;;;;;;13.93;3.50;;;17.20;99.90;;;;;;5032026;28;20103;-82
2022/08/22 03:59:06;;;;;;;14.00;3.80;;;17.30;99.90;;;;;;5032650;28;20493;-82
2022/08/22 04:02:00;;;;;;;10.93;3.85;;;17.20;99.90;;;;;;5016819;28;20041;-82
2022/08/22 04:04:41;;;;;;;10.63;3.63;;;17.30;99.90;;;;;;5032559;28;20046;-82
2022/08/22 04:07:46;;;;;;;13.23;3.95;;;17.20;99.90;;;;;;5030965;28;20084;-82
2022/08/22 04:10:55;;;;;;;11.68;3.72;;;17.20;99.90;;;;;;5003429;28;20488;-82
2022/08/22 04:13:31;;;;;;;11.82;3.80;;;17.20;99.90;;;;;;5016554;28;20052;-83
2022/08/22 04:16:25;;;;;;;10.30;3.80;;;17.20;99.90;;;;;;5033691;28;20064;-82
2022/08/22 04:18:56;;;;;;;11.82;3.83;;;17.10;99.90;;;;;;5033414;28;20152;-82
2022/08/22 04:21:48;;;;;;;11.20;3.70;;;17.10;99.90;;;;;;5030088;28;20045;-83
2022/08/22 04:24:47;;;;;;;11.90;3.88;;;17.10;99.90;;;;;;5043128;28;20049;-82
2022/08/22 04:27:25;;;;;;;10.85;3.83;;;17.10;99.90;;;;;;5036454;28;20459;-82
2022/08/22 04:30:21;;;;;;;14.25;4.15;;;17.10;99.90;;;;;;5034220;28;20092;-82
2022/08/22 04:33:05;;;;;;;12.20;3.92;;;17.10;99.90;;;;;;5033585;28;20045;-83
2022/08/22 04:35:41;;;;;;;13.05;3.80;;;17.00;99.90;;;;;;5024385;28;20120;-82
2022/08/22 04:38:30;;;;;;;11.18;3.60;;;17.00;99.90;;;;;;5039173;28;20044;-82
2022/08/22 04:41:05;;;;;;;11.38;3.95;;;17.00;99.90;;;;;;5035641;28;20045;-82
2022/08/22 04:43:40;;;;;;;10.73;3.83;;;17.00;99.90;;;;;;5035828;28;20502;-82
2022/08/22 04:46:22;;;;;;;11.43;3.67;;;17.00;99.90;;;;;;5032930;28;20088;-82
2022/08/22 04:49:11;;;;;;;10.77;4.05;;;17.00;99.90;;;;;;5035859;28;20060;-82
2022/08/22 04:51:49;;;;;;;15.05;3.92;;;17.20;99.90;;;;;;5034866;28;20045;-82
2022/08/22 04:54:39;;;;;;;12.68;3.72;;;17.00;99.90;;;;;;5035089;28;20490;-82
2022/08/22 04:57:33;;;;;;;12.77;3.92;;;17.00;99.90;;;;;;5015450;28;20041;-82
2022/08/22 05:00:09;;;;;;;12.70;3.88;;;17.00;99.90;;;;;;5018661;28;20714;-82
2022/08/22 05:02:38;;;;;;;12.43;3.88;;;17.00;99.90;;;;;;5035011;28;20045;-82
2022/08/22 05:05:18;;;;;;;11.23;3.88;;;17.20;99.90;;;;;;5024517;28;20141;-84
2022/08/22 05:08:08;;;;;;;9.20;3.63;;;17.00;99.90;;;;;;5032511;28;20041;-82
2022/08/22 05:10:41;;;;;;;11.43;3.63;;;17.00;99.90;;;;;;5035541;28;20041;-82
2022/08/22 05:13:12;;;;;;;11.45;3.80;;;16.90;99.90;;;;;;5035203;28;20061;-82
2022/08/22 05:15:42;;;;;;;8.38;3.47;;;17.00;99.90;;;;;;5034736;28;20048;-83
2022/08/22 05:18:35;;;;;;;13.18;3.72;;;17.00;99.90;;;;;;5033770;28;20402;-82
2022/08/22 05:21:05;;;;;;;11.48;3.95;;;17.00;99.90;;;;;;5033277;28;20098;-82
2022/08/22 05:23:47;;;;;;;17.20;4.50;;;17.00;99.90;;;;;;5033475;28;20049;-82
2022/08/22 05:26:14;;;;;;;13.05;4.30;;;17.00;99.90;;;;;;5033618;28;20094;-82
2022/08/22 05:28:44;;;;;;;11.57;4.38;;;17.10;99.90;;;;;;5034735;28;20049;-84
2022/08/22 05:31:27;;;;;;;12.30;4.13;;;17.10;99.90;;;;;;5034878;28;20072;-85
2022/08/22 05:34:03;;;;;;;15.27;4.50;;;17.10;99.90;;;;;;5033667;28;20520;-83
2022/08/22 05:36:54;;;;;;;15.48;4.75;;;17.20;99.90;;;;;;5036052;28;20036;-84
2022/08/22 05:39:23;;;;;;;14.10;4.15;;;17.20;99.90;;;;;;5016620;28;20049;-84
2022/08/22 05:41:52;;;;;;;14.73;4.32;;;17.70;99.90;;;;;;5016563;28;20041;-84
2022/08/22 05:44:22;;;;;;;18.05;4.60;;;17.20;99.90;;;;;;5032262;28;20064;-84
2022/08/22 05:47:13;;;;;;;14.55;4.18;;;17.40;99.90;;;;;;5033268;28;20456;-85
2022/08/22 05:49:49;;;;;;;10.25;4.13;;;17.30;99.90;;;;;;5030884;28;20053;-84
2022/08/22 05:52:35;;;;;;;12.80;3.95;;;17.40;99.90;;;;;;5033918;28;20127;-83
2022/08/22 05:55:03;;;;;;;;;;;17.40;99.90;;;;;;5034813;28;20052;-83
2022/08/22 05:57:34;;;;;;;12.63;4.07;;;18.00;99.90;;;;;;5044163;28;19917;-84
2022/08/22 06:00:10;;;;;;;14.95;4.50;;;17.50;99.90;;;;;;5037147;28;20041;-84
2022/08/22 06:03:02;;;;;;;11.35;3.85;;;17.50;99.90;;;;;;5033284;28;20048;-84
2022/08/22 06:05:31;;;;;;;10.15;3.80;;;17.60;99.90;;;;;;5035420;28;20052;-84
2022/08/22 06:08:06;;;;;;;17.23;4.68;;;17.80;99.90;;;;;;5035241;28;20096;-84
2022/08/22 06:10:43;;;;;;;12.37;4.30;;;17.80;99.90;;;;;;5032026;28;20167;-84
2022/08/22 06:13:42;;;;;;;14.98;4.50;;;17.80;99.90;;;;;;5032328;28;20800;-84
2022/08/22 06:16:17;;;;;;;12.88;4.07;;;17.90;99.90;;;;;;5032851;28;20053;-83
2022/08/22 06:18:44;;;;;;;12.50;3.80;;;18.00;99.90;;;;;;5034556;28;20037;-83
2022/08/22 06:21:18;;;;;;;15.65;4.38;;;18.00;99.90;;;;;;5033920;28;20053;-83
2022/08/22 06:23:51;;;;;;;16.48;4.57;;;18.10;99.90;;;;;;5026534;28;20540;-85
2022/08/22 06:26:18;;;;;;;11.32;4.32;;;18.10;99.90;;;;;;5034903;28;20044;-85
2022/08/22 06:28:46;;;;;;;13.25;4.15;;;18.20;99.90;;;;;;5034806;28;20540;-85
2022/08/22 06:31:31;;;;;;;16.27;4.45;;;18.30;99.90;;;;;;5035241;28;20045;-86
2022/08/22 06:34:22;;;;;;;13.55;4.35;;;18.30;99.90;;;;;;5033942;28;20037;-85
2022/08/22 06:36:50;;;;;;;15.07;4.15;;;18.40;99.90;;;;;;5034220;28;20045;-85
2022/08/22 06:39:21;;;;;;;12.75;3.72;;;18.50;99.90;;;;;;5035237;28;20053;-85
2022/08/22 06:42:01;;;;;;;9.80;3.78;;;18.50;99.90;;;;;;5015189;28;20095;-86
2022/08/22 06:44:34;;;;;;;12.45;4.10;;;18.50;99.90;;;;;;5024604;28;20081;-85
2022/08/22 06:47:03;;;;;;;11.98;3.92;;;18.60;99.90;;;;;;5035540;28;20454;-87
2022/08/22 06:49:33;;;;;;;15.85;4.32;;;18.60;99.90;;;;;;5036156;28;20054;-84
2022/08/22 06:52:16;;;;;;;15.75;3.80;;;18.60;99.90;;;;;;5033464;28;20076;-86
2022/08/22 06:54:46;;;;;;;12.98;3.97;;;18.70;99.90;;;;;;5033844;28;20042;-85
2022/08/22 06:57:52;;;;;;;11.88;3.90;;;18.80;99.90;;;;;;5036131;28;20043;-85
2022/08/22 07:00:19;;;;;;;10.82;3.50;;;18.90;99.90;;;;;;4991325;28;20057;-82
2022/08/22 07:02:54;;;;;;;11.63;3.92;;;18.90;99.90;;;;;;5032264;28;20060;-80
2022/08/22 07:05:27;;;;;;;;;;;19.00;99.90;;;;;;5029738;28;20053;-83
2022/08/22 07:07:54;;;;;;;12.77;3.40;;;19.00;99.90;;;;;;5018906;28;19928;-82
2022/08/22 07:10:22;;;;;;;10.93;3.83;;;19.10;99.90;;;;;;5033718;28;20045;-77
2022/08/22 07:12:51;;;;;;;10.23;3.22;;;19.10;99.90;;;;;;5034632;28;20131;-86
2022/08/22 07:15:36;;;;;;;12.00;3.35;;;19.20;99.90;;;;;;5042852;28;20539;-85
2022/08/22 07:18:07;;;;;;;11.13;3.13;;;19.30;99.90;;;;;;5034534;28;20051;-88
2022/08/22 07:20:44;;;;;;;13.63;3.30;;;19.30;99.90;;;;;;5033580;28;20088;-88
2022/08/22 07:23:32;;;;;;;11.30;2.97;;;19.20;99.90;;;;;;5033965;28;20045;-87
2022/08/22 07:26:27;;;;;;;13.15;2.95;;;19.30;99.90;;;;;;5033077;28;20052;-87
2022/08/22 07:29:05;;;;;;;16.60;3.53;;;19.40;99.90;;;;;;5041219;28;20120;-87
2022/08/22 07:31:42;;;;;;;13.20;3.25;;;19.40;99.90;;;;;;5055156;28;20056;-87
2022/08/22 07:34:36;;;;;;;11.45;3.38;;;19.50;99.90;;;;;;5055966;28;20056;-87
2022/08/22 07:37:24;;;;;;;12.30;3.75;;;19.50;99.90;;;;;;5050149;28;20120;-88
2022/08/22 07:39:49;;;;;;;14.07;3.97;;;19.60;99.90;;;;;;5015093;28;20196;-87
2022/08/22 07:42:19;;;;;;;10.68;3.50;;;19.60;99.90;;;;;;5033291;28;20044;-87
2022/08/22 07:45:02;;;;;;;9.75;3.30;;;20.00;99.90;;;;;;5035365;28;20038;-86
2022/08/22 07:48:13;;;;;;;16.42;3.45;;;19.70;99.90;;;;;;5042932;28;20056;-87
2022/08/22 07:51:16;;;;;;;12.10;3.50;;;19.80;99.90;;;;;;5016693;28;20046;-89
2022/08/22 07:53:45;;;;;;;9.95;3.40;;;19.90;99.90;;;;;;5019007;28;20108;-88
2022/08/22 07:56:28;;;;;;;16.95;3.63;;;20.00;99.90;;;;;;5018015;28;20469;-86
2022/08/22 07:59:09;;;;;;;11.52;3.25;;;20.00;99.90;;;;;;5018497;28;20096;-86
2022/08/22 08:01:35;;;;;;;12.68;3.50;;;20.00;99.90;;;;;;5018858;28;20045;-87
2022/08/22 08:04:09;;;;;;;12.52;3.47;;;20.10;99.90;;;;;;5018665;28;20049;-87
2022/08/22 08:06:35;;;;;;;13.10;3.40;;;20.20;99.90;;;;;;5019317;28;20050;-86
2022/08/22 08:09:01;;;;;;;12.57;3.30;;;20.30;99.90;;;;;;5017812;28;20132;-88
2022/08/22 08:11:33;;;;;;;11.27;3.45;;;20.40;99.90;;;;;;5019831;28;20038;-87
2022/08/22 08:14:02;;;;;;;9.85;3.30;;;20.70;99.90;;;;;;5026905;28;20194;-87
2022/08/22 08:16:38;;;;;;;12.57;3.20;;;20.60;99.90;;;;;;5035709;28;20085;-86
2022/08/22 08:19:05;;;;;;;12.60;3.55;;;20.60;99.90;;;;;;5036985;28;20053;-88
2022/08/22 08:21:50;;;;;;;14.52;3.60;;;20.70;99.90;;;;;;5056568;28;20041;-88
2022/08/22 08:24:22;;;;;;;12.02;3.38;;;20.80;99.90;;;;;;5058203;28;20045;-87
2022/08/22 08:29:54;;;;;;;12.65;3.50;;;21.00;99.90;;;;;;5055163;28;20054;-86
2022/08/22 08:32:23;;;;;;;12.02;3.72;;;21.10;99.90;;;;;;5056688;28;20052;-86
2022/08/22 08:34:51;;;;;;;11.88;3.72;;;21.10;99.90;;;;;;5056085;28;20067;-87
2022/08/22 08:37:34;;;;;;;12.82;3.08;;;21.30;99.90;;;;;;5056434;28;20038;-87
2022/08/22 08:40:07;;;;;;;15.57;3.30;;;21.20;99.90;;;;;;5051782;28;20045;-85
2022/08/22 08:45:54;;;;;;;11.25;3.00;;;21.30;99.90;;;;;;5027433;28;20058;-85
2022/08/22 08:49:08;;;;;;;11.93;3.08;;;21.30;99.90;;;;;;5045872;28;20548;-85
2022/08/22 08:52:02;;;;;;;10.93;2.80;;;21.40;99.90;;;;;;5039144;28;20053;-85
2022/08/22 08:54:54;;;;;;;11.63;2.78;;;21.40;99.90;;;;;;5045365;28;20056;-86
2022/08/22 08:57:45;;;;;;;12.35;3.03;;;21.50;99.90;;;;;;5045426;28;20043;-85
2022/08/22 09:00:16;;;;;;;9.00;2.92;;;21.50;99.90;;;;;;5042465;28;20132;-84
2022/08/22 09:03:11;;;;;;;11.23;3.05;;;21.60;99.90;;;;;;5041091;28;20033;-84
2022/08/22 09:05:49;;;;;;;13.20;3.05;;;21.60;99.90;;;;;;5021883;28;20050;-84
2022/08/22 09:08:50;;;;;;;12.20;3.05;;;21.60;99.90;;;;;;5049742;28;20042;-84
2022/08/22 09:11:46;;;;;;;9.85;3.05;;;21.80;99.90;;;;;;5028357;28;20049;-84
2022/08/22 09:14:30;;;;;;;;;;;21.90;99.90;;;;;;5027528;28;20042;-84
2022/08/22 09:17:22;;;;;;;12.23;3.03;;;22.00;99.90;;;;;;5028211;28;19940;-84
2022/08/22 09:20:29;;;;;;;10.40;3.03;;;22.10;99.90;;;;;;5047222;28;20046;-85
2022/08/22 09:23:16;;;;;;;16.10;3.33;;;22.30;99.90;;;;;;5044583;28;20048;-85
2022/08/22 09:25:50;;;;;;;13.07;3.28;;;22.50;99.90;;;;;;5038886;28;20072;-85
2022/08/22 09:28:52;;;;;;;11.02;3.28;;;22.80;99.90;;;;;;5048517;28;20041;-85
2022/08/22 09:31:36;;;;;;;11.35;3.03;;;23.00;99.90;;;;;;5047397;28;20034;-85
2022/08/22 09:34:16;;;;;;;10.38;2.80;;;23.40;99.90;;;;;;5045190;28;20041;-85
2022/08/22 09:37:00;;;;;;;11.45;3.05;;;23.50;99.90;;;;;;5051264;28;20038;-85
2022/08/22 09:39:35;;;;;;;12.82;3.33;;;23.70;99.90;;;;;;5055480;28;20042;-85
2022/08/22 09:42:20;;;;;;;11.15;3.33;;;24.00;99.90;;;;;;5052092;28;20073;-85
2022/08/22 09:45:17;;;;;;;8.63;3.10;;;24.30;99.90;;;;;;5044340;28;20072;-86
2022/08/22 09:47:57;;;;;;;11.27;2.97;;;24.80;99.90;;;;;;5047707;28;20106;-85
2022/08/22 09:50:36;;;;;;;9.90;2.65;;;25.40;99.90;;;;;;5053531;28;20109;-86
2022/08/22 09:53:42;;;;;;;9.20;2.85;;;25.70;99.90;;;;;;5042361;28;20141;-86
2022/08/22 09:56:34;;;;;;;10.07;3.20;;;25.80;99.90;;;;;;5030513;28;20081;-86
2022/08/22 09:59:09;;;;;;;9.68;2.70;;;25.90;99.90;;;;;;5010931;28;20361;-86
2022/08/22 10:01:58;;;;;;;8.98;2.85;;;26.10;99.90;;;;;;5031923;28;20068;-86
2022/08/22 10:04:29;;;;;;;10.25;3.10;;;26.50;99.90;;;;;;5036128;28;20049;-86
2022/08/22 10:07:20;;;;;;;9.95;2.60;;;26.80;99.90;;;;;;5035205;28;20045;-87
2022/08/22 10:10:00;;;;;;;11.55;3.03;;;27.20;99.90;;;;;;5034103;28;20171;-86
2022/08/22 10:13:10;;;;;;;8.02;2.90;;;27.60;99.90;;;;;;5035852;28;20056;-86
2022/08/22 10:15:47;;;;;;;9.60;2.67;;;27.80;99.90;;;;;;5027183;28;20054;-86
2022/08/22 10:18:32;;;;;;;8.85;2.80;;;28.00;99.90;;;;;;5040508;28;20132;-86
2022/08/22 10:21:12;;;;;;;8.70;2.60;;;28.60;99.90;;;;;;5032127;28;20045;-82
2022/08/22 10:23:43;;;;;;;10.05;2.53;;;29.10;99.90;;;;;;5029319;28;20060;-84
2022/08/22 10:26:11;;;;;;;9.85;2.88;;;29.60;99.50;;;;;;5030109;28;20053;-84
2022/08/22 10:28:43;;;;;;;8.60;2.45;;;30.10;98.50;;;;;;5030451;28;20517;-83
2022/08/22 10:31:19;;;;;;;8.55;2.60;;;30.50;97.40;;;;;;5028658;28;20045;-84
2022/08/22 10:34:08;;;;;;;8.98;2.53;;;30.60;96.10;;;;;;5030527;28;20091;-83
2022/08/22 10:36:55;;;;;;;7.75;2.60;;;30.70;96.10;;;;;;5028931;28;20097;-82
2022/08/22 10:39:40;;;;;;;8.38;2.50;;;30.90;96.20;;;;;;5030570;28;20401;-82
2022/08/22 10:42:22;;;;;;;6.57;2.38;;;31.10;95.60;;;;;;5029967;28;20155;-83
2022/08/22 10:44:57;;;;;;;7.78;2.40;;;31.30;95.30;;;;;;5029687;28;20568;-83
2022/08/22 10:47:34;;;;;;;8.70;2.30;;;31.50;94.60;;;;;;5028625;28;20107;-83
2022/08/22 10:50:17;;;;;;;9.15;2.45;;;31.50;94.20;;;;;;5030601;28;20049;-83
2022/08/22 10:53:34;;;;;;;8.95;2.60;;;31.60;94.10;;;;;;5029337;28;20068;-84
2022/08/22 10:56:18;;;;;;;8.55;2.53;;;31.70;93.90;;;;;;5021730;28;20174;-84
2022/08/22 10:59:09;;;;;;;8.23;2.40;;;31.30;93.70;;;;;;5013966;28;20046;-82
2022/08/22 11:01:44;;;;;;;10.40;2.50;;;31.00;93.10;;;;;;5006874;28;20076;-83
2022/08/22 11:04:39;;;;;;;8.15;2.55;;;30.70;93.50;;;;;;5013531;28;20098;-84
2022/08/22 11:07:42;;;;;;;8.38;2.72;;;30.70;93.90;;;;;;5005995;28;20058;-84
2022/08/22 11:10:38;;;;;;;10.30;2.47;;;30.60;94.00;;;;;;5014346;28;20525;-84
2022/08/22 11:13:31;;;;;;;7.53;2.60;;;30.80;94.10;;;;;;5014281;28;20089;-85
2022/08/22 11:15:59;;;;;;;7.63;2.40;;;31.20;93.60;;;;;;4987305;28;20405;-83
2022/08/22 11:18:48;;;;;;;7.53;2.40;;;31.50;92.30;;;;;;5014818;28;20046;-84
2022/08/22 11:21:32;;;;;;;7.40;2.20;;;31.60;93.20;;;;;;5013896;28;20042;-83
2022/08/22 11:24:35;;;;;;;6.47;2.20;;;31.80;92.70;;;;;;5014771;28;20459;-84
2022/08/22 11:27:15;;;;;;;8.55;2.53;;;32.40;92.40;;;;;;5013091;28;20485;-85
2022/08/22 11:30:18;;;;;;;8.00;2.35;;;33.10;92.00;;;;;;5013150;28;20097;-84
2022/08/22 11:33:29;;;;;;;7.50;2.20;;;34.20;91.40;;;;;;5013191;28;20483;-84
2022/08/22 11:36:07;;;;;;;7.63;2.35;;;35.50;86.30;;;;;;5011708;28;20073;-84
2022/08/22 11:38:48;;;;;;;6.65;2.13;;;36.60;82.40;;;;;;5013310;28;20121;-84
2022/08/22 11:41:25;;;;;;;7.63;2.38;;;37.10;81.20;;;;;;5034071;28;20429;-85
2022/08/22 11:44:03;;;;;;;6.45;2.38;;;38.10;77.80;;;;;;5035137;28;20042;-84
2022/08/22 11:46:36;;;;;;;6.53;2.20;;;38.40;77.40;;;;;;5035258;28;20465;-84
2022/08/22 11:49:15;;;;;;;7.33;2.17;;;38.60;76.20;;;;;;5032568;28;20061;-84
2022/08/22 11:52:11;;;;;;;6.10;2.00;;;38.00;75.80;;;;;;5032880;28;20295;-84
2022/08/22 11:55:06;;;;;;;7.13;2.28;;;38.50;76.70;;;;;;5032639;28;20505;-84
2022/08/22 11:57:41;;;;;;;7.63;2.40;;;39.10;73.40;;;;;;5033641;28;20052;-84
2022/08/22 12:00:13;;;;;;;6.80;2.10;;;39.60;71.90;;;;;;5032152;28;20292;-84
2022/08/22 12:02:58;;;;;;;8.25;2.45;;;39.60;70.90;;;;;;5034056;28;20053;-84
2022/08/22 12:05:41;;;;;;;7.25;2.25;;;38.90;70.20;;;;;;5033475;28;20049;-84
2022/08/22 12:08:27;;;;;;;12.35;4.78;;;39.20;70.20;;;;;;5033394;28;20088;-83
2022/08/22 12:11:10;;;;;;;7.18;2.05;;;39.60;69.20;;;;;;5013832;28;20034;-84
2022/08/22 12:13:52;;;;;;;6.13;2.10;;;39.90;67.70;;;;;;5014168;28;20061;-83
2022/08/22 12:16:35;;;;;;;6.43;2.00;;;39.80;67.50;;;;;;5012796;28;20086;-84
2022/08/22 12:19:30;;;;;;;5.93;2.05;;;40.00;68.50;;;;;;5014459;28;20040;-84
2022/08/22 12:22:33;;;;;;;5.18;1.95;;;40.40;66.80;;;;;;5002318;28;20054;-83
2022/08/22 12:25:21;;;;;;;8.48;2.15;;;39.80;65.70;;;;;;5013273;28;20057;-83
2022/08/22 12:28:21;;;;;;;6.93;1.90;;;37.80;66.70;;;;;;5014009;28;20060;-84
2022/08/22 12:30:57;;;;;;;5.25;2.03;;;35.90;68.30;;;;;;5013494;28;20046;-83
2022/08/22 12:33:53;;;;;;;6.05;2.15;;;34.00;70.40;;;;;;5042499;28;20045;-82
2022/08/22 12:36:40;;;;;;;7.03;2.20;;;32.70;71.60;;;;;;5035196;28;20224;-83
2022/08/22 12:39:45;;;;;;;6.10;2.47;;;31.90;73.30;;;;;;5036673;28;20053;-82
2022/08/22 12:42:20;;;;;;;8.10;2.35;;;31.00;74.30;;;;;;5034556;28;20147;-83
2022/08/22 12:44:48;;;;;;;;;;;30.30;75.70;;;;;;5037057;28;20057;-84
2022/08/22 12:47:41;;;;;;;8.75;2.38;;;29.90;76.50;;;;;;5051466;28;19928;-81
2022/08/22 12:50:13;;;;;;;7.70;2.30;;;29.50;77.90;;;;;;5034778;28;20165;-80
2022/08/22 12:53:24;;;;;;;9.10;2.60;;;29.30;78.70;;;;;;5034461;28;20079;-80
2022/08/22 12:56:22;;;;;;;9.85;2.38;;;29.20;78.90;;;;;;5022946;28;20136;-82
2022/08/22 12:58:56;;;;;;;6.20;2.10;;;29.20;79.60;;;;;;5036152;28;20049;-82
2022/08/22 13:01:23;;;;;;;8.60;2.10;;;29.40;79.60;;;;;;5034184;28;20052;-81
2022/08/22 13:04:00;;;;;;;6.40;2.20;;;29.50;79.50;;;;;;5030169;28;20049;-79
2022/08/22 13:06:35;;;;;;;7.65;2.05;;;29.40;80.00;;;;;;5018936;28;20116;-81
2022/08/22 13:09:21;;;;;;;6.20;2.05;;;29.30;80.20;;;;;;5015987;28;20046;-82
2022/08/22 13:11:50;;;;;;;7.35;2.25;;;29.20;80.00;;;;;;5047806;28;20151;-76
2022/08/22 13:14:24;;;;;;;8.35;2.25;;;29.20;79.90;;;;;;5044381;28;20045;-80
2022/08/22 13:16:55;;;;;;;6.93;2.15;;;29.10;80.50;;;;;;5034909;28;20047;-87
2022/08/22 13:19:34;;;;;;;4.68;1.90;;;29.10;80.10;;;;;;5034815;28;20103;-86
2022/08/22 13:22:24;;;;;;;6.95;1.95;;;29.00;80.50;;;;;;5034529;28;20091;-81
2022/08/22 13:25:00;;;;;;;6.38;2.22;;;29.00;80.50;;;;;;5039143;28;20073;-87
2022/08/22 13:27:33;;;;;;;6.63;2.20;;;29.00;79.70;;;;;;5035817;28;20485;-86
2022/08/22 13:30:12;;;;;;;6.40;2.00;;;28.90;80.10;;;;;;5052714;28;20587;-84
2022/08/22 13:32:43;;;;;;;9.07;2.30;;;28.80;81.00;;;;;;5034707;28;20386;-86
2022/08/22 13:35:16;;;;;;;7.28;2.00;;;28.70;80.30;;;;;;5034043;28;20065;-86
2022/08/22 13:37:45;;;;;;;5.85;2.08;;;28.40;81.10;;;;;;5035323;28;20038;-85
2022/08/22 13:40:20;;;;;;;7.03;2.10;;;28.30;82.10;;;;;;5043715;28;20048;-85
2022/08/22 13:42:49;;;;;;;7.05;2.05;;;28.20;81.20;;;;;;5037336;28;20112;-82
2022/08/22 13:45:22;;;;;;;5.28;2.05;;;27.90;81.90;;;;;;5044002;28;20049;-88
2022/08/22 13:47:57;;;;;;;8.32;2.10;;;27.90;82.70;;;;;;5033616;28;20076;-85
2022/08/22 13:50:28;;;;;;;7.95;2.22;;;27.80;82.50;;;;;;5028645;28;20077;-81
2022/08/22 13:52:55;;;;;;;9.05;2.42;;;27.70;82.70;;;;;;5034307;28;20128;-86
2022/08/22 13:55:44;;;;;;;6.47;2.45;;;27.50;83.40;;;;;;5035765;28;20049;-85
2022/08/22 13:58:28;;;;;;;6.00;2.17;;;27.40;83.90;;;;;;5035405;28;20041;-87
2022/08/22 14:01:15;;;;;;;6.00;2.00;;;27.40;83.50;;;;;;5034156;28;20096;-86
2022/08/22 14:03:49;;;;;;;7.32;2.22;;;27.30;83.10;;;;;;5040942;28;20144;-85
2022/08/22 14:06:33;;;;;;;4.80;1.98;;;27.20;82.90;;;;;;5029525;28;20049;-86